sensor_id;sensor_type;location;lat;lon;timestamp;pressure;altitude;pressure_sealevel;temperature;humidity
55171;BME280;41060;47.510;8.680;2022-08-11T00:01:11;97289.47;;;25.95;28.95
55171;BME280;41060;47.510;8.680;2022-08-11T00:03:48;97279.22;;;25.97;29.11
55171;BME280;41060;47.510;8.680;2022-08-11T00:06:23;97259.88;;;25.87;28.72
55171;BME280;41060;47.510;8.680;2022-08-11T00:08:52;97292.78;;;25.97;29.18
55171;BME280;41060;47.510;8.680;2022-08-11T00:11:21;97285.34;;;25.79;29.16
55171;BME280;41060;47.510;8.680;2022-08-11T00:13:50;97278.06;;;25.66;29.51
55171;BME280;41060;47.510;8.680;2022-08-11T00:16:19;97275.75;;;25.77;28.91
55171;BME280;41060;47.510;8.680;2022-08-11T00:18:48;97274.50;;;25.79;28.86
55171;BME280;41060;47.510;8.680;2022-08-11T00:21:19;97278.88;;;25.87;28.90
55171;BME280;41060;47.510;8.680;2022-08-11T00:23:53;97279.06;;;25.85;28.98
55171;BME280;41060;47.510;8.680;2022-08-11T00:26:21;97278.44;;;25.83;28.79
55171;BME280;41060;47.510;8.680;2022-08-11T00:28:50;97277.63;;;25.76;29.16
55171;BME280;41060;47.510;8.680;2022-08-11T00:31:23;97284.53;;;25.79;29.08
55171;BME280;41060;47.510;8.680;2022-08-11T00:33:53;97288.28;;;25.78;29.08
55171;BME280;41060;47.510;8.680;2022-08-11T00:36:25;97283.25;;;25.75;28.92
55171;BME280;41060;47.510;8.680;2022-08-11T00:38:55;97282.84;;;25.78;28.95
55171;BME280;41060;47.510;8.680;2022-08-11T00:41:31;97280.53;;;25.81;28.70
55171;BME280;41060;47.510;8.680;2022-08-11T00:44:21;97257.00;;;25.62;28.80
55171;BME280;41060;47.510;8.680;2022-08-11T00:46:58;97281.81;;;25.79;28.79
55171;BME280;41060;47.510;8.680;2022-08-11T00:49:39;97283.47;;;25.80;28.83
55171;BME280;41060;47.510;8.680;2022-08-11T00:52:15;97275.34;;;25.80;
55171;BME280;41060;47.510;8.680;2022-08-11T00:58:16;97274.50;;;25.79;28.61
55171;BME280;41060;47.510;8.680;2022-08-11T01:01:07;97272.66;;;25.73;28.69
55171;BME280;41060;47.510;8.680;2022-08-11T01:03:58;97267.47;;;25.58;28.82
55171;BME280;41060;47.510;8.680;2022-08-11T01:06:59;97280.78;;;25.60;28.77
55171;BME280;41060;47.510;8.680;2022-08-11T01:09:46;97276.19;;;25.60;28.99
55171;BME280;41060;47.510;8.680;2022-08-11T01:12:31;97275.78;;;25.63;29.18
55171;BME280;41060;47.510;8.680;2022-08-11T01:15:26;97279.94;;;25.59;29.23
55171;BME280;41060;47.510;8.680;2022-08-11T01:18:24;97280.78;;;25.60;29.23
55171;BME280;41060;47.510;8.680;2022-08-11T01:27:33;97276.25;;;25.41;29.39
55171;BME280;41060;47.510;8.680;2022-08-11T01:30:16;97272.06;;;25.38;29.54
55171;BME280;41060;47.510;8.680;2022-08-11T01:36:25;97275.63;;;25.32;29.19
55171;BME280;41060;47.510;8.680;2022-08-11T01:39:37;97276.69;;;25.31;29.17
55171;BME280;41060;47.510;8.680;2022-08-11T01:42:49;97283.97;;;25.30;29.12
55171;BME280;41060;47.510;8.680;2022-08-11T01:45:45;97276.28;;;25.27;29.19
55171;BME280;41060;47.510;8.680;2022-08-11T01:48:20;97239.19;;;25.08;28.99
55171;BME280;41060;47.510;8.680;2022-08-11T01:50:53;97265.84;;;25.24;29.52
55171;BME280;41060;47.510;8.680;2022-08-11T01:53:32;97274.41;;;25.21;29.47
55171;BME280;41060;47.510;8.680;2022-08-11T01:56:12;97274.19;;;25.16;29.72
55171;BME280;41060;47.510;8.680;2022-08-11T01:58:44;97272.97;;;25.12;29.86
55171;BME280;41060;47.510;8.680;2022-08-11T02:01:35;97272.53;;;25.09;30.03
55171;BME280;41060;47.510;8.680;2022-08-11T02:04:17;97269.44;;;25.05;30.32
55171;BME280;41060;47.510;8.680;2022-08-11T02:06:48;97269.63;;;25.04;30.03
55171;BME280;41060;47.510;8.680;2022-08-11T02:09:44;97278.78;;;25.03;29.99
55171;BME280;41060;47.510;8.680;2022-08-11T02:12:31;97271.69;;;24.95;30.02
55171;BME280;41060;47.510;8.680;2022-08-11T02:15:10;97280.66;;;24.96;30.02
55171;BME280;41060;47.510;8.680;2022-08-11T02:17:47;97271.88;;;24.93;29.85
55171;BME280;41060;47.510;8.680;2022-08-11T02:20:21;97271.69;;;24.88;29.91
55171;BME280;41060;47.510;8.680;2022-08-11T02:23:16;97276.28;;;24.88;29.65
55171;BME280;41060;47.510;8.680;2022-08-11T02:26:08;97272.53;;;24.82;29.61
55171;BME280;41060;47.510;8.680;2022-08-11T02:28:50;97276.69;;;24.78;29.75
55171;BME280;41060;47.510;8.680;2022-08-11T02:31:26;97270.03;;;24.74;30.02
55171;BME280;41060;47.510;8.680;2022-08-11T02:34:22;97269.81;;;24.69;29.87
55171;BME280;41060;47.510;8.680;2022-08-11T02:36:57;97266.03;;;24.70;30.18
55171;BME280;41060;47.510;8.680;2022-08-11T02:39:37;97266.28;;;24.69;30.00
55171;BME280;41060;47.510;8.680;2022-08-11T02:42:23;97266.28;;;24.62;30.08
55171;BME280;41060;47.510;8.680;2022-08-11T02:45:05;97262.94;;;24.53;30.02
55171;BME280;41060;47.510;8.680;2022-08-11T02:47:41;97260.63;;;24.50;30.16
55171;BME280;41060;47.510;8.680;2022-08-11T02:50:38;97268.53;;;24.52;29.99
55171;BME280;41060;47.510;8.680;2022-08-11T02:53:11;97276.66;;;24.52;29.89
55171;BME280;41060;47.510;8.680;2022-08-11T02:55:52;97231.19;;;24.21;30.09
55171;BME280;41060;47.510;8.680;2022-08-11T02:58:32;97276.47;;;24.47;30.11
55171;BME280;41060;47.510;8.680;2022-08-11T03:01:12;97275.81;;;24.45;29.98
55171;BME280;41060;47.510;8.680;2022-08-11T03:03:49;97272.69;;;24.41;30.15
55171;BME280;41060;47.510;8.680;2022-08-11T03:06:26;97274.53;;;24.41;30.18
55171;BME280;41060;47.510;8.680;2022-08-11T03:09:02;97273.50;;;24.42;30.22
55171;BME280;41060;47.510;8.680;2022-08-11T03:11:41;97230.13;;;24.09;30.38
55171;BME280;41060;47.510;8.680;2022-08-11T03:14:34;97277.19;;;24.28;30.50
55171;BME280;41060;47.510;8.680;2022-08-11T03:17:23;97281.94;;;24.12;30.82
55171;BME280;41060;47.510;8.680;2022-08-11T03:19:59;97275.28;;;24.08;30.92
55171;BME280;41060;47.510;8.680;2022-08-11T03:22:33;97270.72;;;24.09;31.04
55171;BME280;41060;47.510;8.680;2022-08-11T03:25:08;97265.50;;;24.07;30.91
55171;BME280;41060;47.510;8.680;2022-08-11T03:27:49;97268.63;;;24.11;31.09
55171;BME280;41060;47.510;8.680;2022-08-11T03:30:24;97271.56;;;24.09;31.08
55171;BME280;41060;47.510;8.680;2022-08-11T03:33:07;97263.41;;;24.03;31.13
55171;BME280;41060;47.510;8.680;2022-08-11T03:36:12;97269.78;;;23.89;31.72
55171;BME280;41060;47.510;8.680;2022-08-11T03:38:54;97271.84;;;23.80;31.61
55171;BME280;41060;47.510;8.680;2022-08-11T03:41:31;97279.75;;;23.82;31.61
55171;BME280;41060;47.510;8.680;2022-08-11T03:44:19;97273.50;;;23.81;31.39
55171;BME280;41060;47.510;8.680;2022-08-11T03:47:05;97276.84;;;23.83;31.51
55171;BME280;41060;47.510;8.680;2022-08-11T03:49:43;97278.53;;;23.84;31.49
55171;BME280;41060;47.510;8.680;2022-08-11T03:52:20;97271.25;;;23.85;31.18
55171;BME280;41060;47.510;8.680;2022-08-11T03:54:54;97274.56;;;23.80;31.31
55171;BME280;41060;47.510;8.680;2022-08-11T04:01:03;97272.25;;;23.77;30.75
55171;BME280;41060;47.510;8.680;2022-08-11T04:07:05;97278.44;;;23.71;31.41
55171;BME280;41060;47.510;8.680;2022-08-11T04:10:07;97275.47;;;23.66;31.28
55171;BME280;41060;47.510;8.680;2022-08-11T04:16:03;97291.31;;;23.69;31.60
55171;BME280;41060;47.510;8.680;2022-08-11T04:24:57;97279.28;;;23.71;31.41
55171;BME280;41060;47.510;8.680;2022-08-11T04:30:48;97278.19;;;23.66;32.17
55171;BME280;41060;47.510;8.680;2022-08-11T04:33:40;97277.13;;;23.60;32.01
55171;BME280;41060;47.510;8.680;2022-08-11T04:40:02;97281.47;;;23.55;32.61
55171;BME280;41060;47.510;8.680;2022-08-11T04:43:01;97286.22;;;23.53;32.40
55171;BME280;41060;47.510;8.680;2022-08-11T04:46:13;97285.63;;;23.51;32.69
55171;BME280;41060;47.510;8.680;2022-08-11T04:48:54;97290.75;;;23.46;32.69
55171;BME280;41060;47.510;8.680;2022-08-11T04:52:01;97278.63;;;23.28;33.21
55171;BME280;41060;47.510;8.680;2022-08-11T04:55:02;97299.34;;;23.21;33.40
55171;BME280;41060;47.510;8.680;2022-08-11T04:58:14;97300.56;;;23.19;33.37
55171;BME280;41060;47.510;8.680;2022-08-11T05:01:17;97293.69;;;23.16;33.73
55171;BME280;41060;47.510;8.680;2022-08-11T05:04:20;97299.09;;;23.16;33.83
55171;BME280;41060;47.510;8.680;2022-08-11T05:07:26;97307.78;;;23.12;34.05
55171;BME280;41060;47.510;8.680;2022-08-11T05:10:12;97300.72;;;23.11;33.94
55171;BME280;41060;47.510;8.680;2022-08-11T05:12:45;97291.97;;;23.09;34.09
55171;BME280;41060;47.510;8.680;2022-08-11T05:15:17;97300.91;;;23.09;34.30
55171;BME280;41060;47.510;8.680;2022-08-11T05:18:09;97296.53;;;23.08;34.31
55171;BME280;41060;47.510;8.680;2022-08-11T05:20:56;97303.22;;;23.12;34.27
55171;BME280;41060;47.510;8.680;2022-08-11T05:23:47;97293.44;;;23.11;34.12
55171;BME280;41060;47.510;8.680;2022-08-11T05:26:42;97301.28;;;23.06;35.04
55171;BME280;41060;47.510;8.680;2022-08-11T05:29:41;97297.09;;;23.03;34.89
55171;BME280;41060;47.510;8.680;2022-08-11T05:32:34;97298.13;;;23.02;34.87
55171;BME280;41060;47.510;8.680;2022-08-11T05:35:26;97296.03;;;22.98;35.11
55171;BME280;41060;47.510;8.680;2022-08-11T05:37:57;97300.41;;;22.99;35.12
55171;BME280;41060;47.510;8.680;2022-08-11T05:40:49;97302.50;;;23.03;34.37
55171;BME280;41060;47.510;8.680;2022-08-11T05:43:39;97303.75;;;23.08;34.51
55171;BME280;41060;47.510;8.680;2022-08-11T05:46:26;97304.06;;;23.13;34.16
55171;BME280;41060;47.510;8.680;2022-08-11T05:49:12;97301.56;;;23.11;34.40
55171;BME280;41060;47.510;8.680;2022-08-11T05:51:58;97306.81;;;23.19;34.22
55171;BME280;41060;47.510;8.680;2022-08-11T05:54:46;97308.47;;;23.20;33.83
55171;BME280;41060;47.510;8.680;2022-08-11T05:57:35;97318.09;;;23.29;33.98
55171;BME280;41060;47.510;8.680;2022-08-11T06:00:06;97316.44;;;23.28;33.79
55171;BME280;41060;47.510;8.680;2022-08-11T06:02:41;97323.28;;;23.31;33.81
55171;BME280;41060;47.510;8.680;2022-08-11T06:05:10;97286.22;;;23.18;33.72
55171;BME280;41060;47.510;8.680;2022-08-11T06:07:38;97314.47;;;23.44;33.50
55171;BME280;41060;47.510;8.680;2022-08-11T06:10:07;97315.53;;;23.49;33.63
55171;BME280;41060;47.510;8.680;2022-08-11T06:12:36;97311.53;;;23.45;33.51
55171;BME280;41060;47.510;8.680;2022-08-11T06:15:10;97314.88;;;23.47;33.57
55171;BME280;41060;47.510;8.680;2022-08-11T06:17:43;97313.81;;;23.42;33.55
55171;BME280;41060;47.510;8.680;2022-08-11T06:20:23;97321.47;;;23.38;33.71
55171;BME280;41060;47.510;8.680;2022-08-11T06:22:56;97324.81;;;23.40;33.95
55171;BME280;41060;47.510;8.680;2022-08-11T06:25:29;97324.44;;;23.43;33.69
55171;BME280;41060;47.510;8.680;2022-08-11T06:27:56;97320.69;;;23.16;34.29
55171;BME280;41060;47.510;8.680;2022-08-11T06:30:38;97282.19;;;22.86;34.63
55171;BME280;41060;47.510;8.680;2022-08-11T06:33:09;97324.28;;;23.23;34.44
55171;BME280;41060;47.510;8.680;2022-08-11T06:35:46;97322.97;;;22.70;35.62
55171;BME280;41060;47.510;8.680;2022-08-11T06:38:21;97320.41;;;22.62;35.64
55171;BME280;41060;47.510;8.680;2022-08-11T06:40:53;97321.59;;;22.38;36.20
55171;BME280;41060;47.510;8.680;2022-08-11T06:43:48;97294.72;;;22.09;36.06
55171;BME280;41060;47.510;8.680;2022-08-11T06:46:24;97312.88;;;22.21;36.45
55171;BME280;41060;47.510;8.680;2022-08-11T06:48:53;97309.03;;;22.45;35.97
55171;BME280;41060;47.510;8.680;2022-08-11T06:51:22;97326.44;;;22.43;36.13
55171;BME280;41060;47.510;8.680;2022-08-11T06:53:53;97319.19;;;22.43;35.92
55171;BME280;41060;47.510;8.680;2022-08-11T06:56:25;97322.38;;;22.32;36.52
55171;BME280;41060;47.510;8.680;2022-08-11T06:59:11;97314.72;;;22.36;36.12
55171;BME280;41060;47.510;8.680;2022-08-11T07:02:07;97293.00;;;22.22;36.16
55171;BME280;41060;47.510;8.680;2022-08-11T07:04:41;97315.47;;;22.30;36.54
55171;BME280;41060;47.510;8.680;2022-08-11T07:07:45;97310.34;;;22.35;36.10
55171;BME280;41060;47.510;8.680;2022-08-11T07:10:47;97295.78;;;22.50;36.58
55171;BME280;41060;47.510;8.680;2022-08-11T07:13:37;97308.19;;;22.66;36.10
55171;BME280;41060;47.510;8.680;2022-08-11T07:16:26;97313.72;;;22.58;36.02
55171;BME280;41060;47.510;8.680;2022-08-11T07:19:01;97309.88;;;22.46;36.65
55171;BME280;41060;47.510;8.680;2022-08-11T07:21:46;97310.63;;;22.40;36.74
55171;BME280;41060;47.510;8.680;2022-08-11T07:24:35;97312.97;;;22.28;36.75
55171;BME280;41060;47.510;8.680;2022-08-11T07:27:24;97310.34;;;22.35;36.68
55171;BME280;41060;47.510;8.680;2022-08-11T07:30:10;97315.72;;;22.49;36.78
55171;BME280;41060;47.510;8.680;2022-08-11T07:32:44;97315.81;;;22.41;36.24
55171;BME280;41060;47.510;8.680;2022-08-11T07:35:17;97311.09;;;22.43;36.69
55171;BME280;41060;47.510;8.680;2022-08-11T07:37:47;97313.19;;;22.48;36.33
55171;BME280;41060;47.510;8.680;2022-08-11T07:40:20;97311.63;;;22.53;36.89
55171;BME280;41060;47.510;8.680;2022-08-11T07:42:49;97312.69;;;22.59;36.21
55171;BME280;41060;47.510;8.680;2022-08-11T07:45:17;97306.53;;;22.65;36.10
55171;BME280;41060;47.510;8.680;2022-08-11T07:48:02;97317.25;;;22.58;36.55
55171;BME280;41060;47.510;8.680;2022-08-11T07:50:49;97319.31;;;22.56;37.26
55171;BME280;41060;47.510;8.680;2022-08-11T07:53:34;97314.44;;;22.45;36.56
55171;BME280;41060;47.510;8.680;2022-08-11T07:56:04;97315.41;;;22.59;36.78
55171;BME280;41060;47.510;8.680;2022-08-11T07:58:33;97319.34;;;22.84;37.17
55171;BME280;41060;47.510;8.680;2022-08-11T08:01:21;97317.22;;;23.01;36.52
55171;BME280;41060;47.510;8.680;2022-08-11T08:04:08;97310.91;;;23.15;35.98
55171;BME280;41060;47.510;8.680;2022-08-11T08:06:55;97314.47;;;23.16;36.40
55171;BME280;41060;47.510;8.680;2022-08-11T08:09:41;97306.88;;;23.05;36.29
55171;BME280;41060;47.510;8.680;2022-08-11T08:12:28;97317.94;;;23.10;36.75
55171;BME280;41060;47.510;8.680;2022-08-11T08:15:14;97312.41;;;23.18;36.42
55171;BME280;41060;47.510;8.680;2022-08-11T08:18:00;97309.63;;;23.39;36.07
55171;BME280;41060;47.510;8.680;2022-08-11T08:20:34;97302.66;;;23.23;36.01
55171;BME280;41060;47.510;8.680;2022-08-11T08:23:04;97306.41;;;23.22;36.34
55171;BME280;41060;47.510;8.680;2022-08-11T08:25:37;97307.84;;;23.18;36.22
55171;BME280;41060;47.510;8.680;2022-08-11T08:28:08;97314.25;;;23.17;36.25
55171;BME280;41060;47.510;8.680;2022-08-11T08:30:36;97311.88;;;23.08;35.67
55171;BME280;41060;47.510;8.680;2022-08-11T08:33:14;97303.31;;;23.25;35.92
55171;BME280;41060;47.510;8.680;2022-08-11T08:35:43;97305.63;;;23.63;35.89
55171;BME280;41060;47.510;8.680;2022-08-11T08:38:12;97304.72;;;23.84;35.25
55171;BME280;41060;47.510;8.680;2022-08-11T08:40:42;97312.19;;;23.82;35.79
55171;BME280;41060;47.510;8.680;2022-08-11T08:43:12;97308.94;;;23.93;35.74
55171;BME280;41060;47.510;8.680;2022-08-11T08:45:42;97304.34;;;23.93;36.06
55171;BME280;41060;47.510;8.680;2022-08-11T08:48:12;97309.97;;;23.98;35.05
55171;BME280;41060;47.510;8.680;2022-08-11T08:50:43;97309.63;;;24.14;34.82
55171;BME280;41060;47.510;8.680;2022-08-11T08:53:34;97304.13;;;24.42;34.77
55171;BME280;41060;47.510;8.680;2022-08-11T08:56:03;97306.16;;;24.34;34.86
55171;BME280;41060;47.510;8.680;2022-08-11T08:58:34;97310.28;;;24.23;33.93
55171;BME280;41060;47.510;8.680;2022-08-11T09:01:02;97319.91;;;24.32;34.67
55171;BME280;41060;47.510;8.680;2022-08-11T09:03:34;97315.28;;;24.33;34.59
55171;BME280;41060;47.510;8.680;2022-08-11T09:06:02;97310.81;;;24.53;34.61
55171;BME280;41060;47.510;8.680;2022-08-11T09:08:31;97303.53;;;24.60;34.35
55171;BME280;41060;47.510;8.680;2022-08-11T09:11:03;97304.19;;;24.82;34.41
55171;BME280;41060;47.510;8.680;2022-08-11T09:13:49;97268.75;;;24.57;33.82
55171;BME280;41060;47.510;8.680;2022-08-11T09:16:20;97295.03;;;24.76;33.62
55171;BME280;41060;47.510;8.680;2022-08-11T09:18:50;97298.78;;;24.88;33.84
55171;BME280;41060;47.510;8.680;2022-08-11T09:21:18;97304.84;;;25.10;33.74
55171;BME280;41060;47.510;8.680;2022-08-11T09:23:48;97305.47;;;25.19;33.67
55171;BME280;41060;47.510;8.680;2022-08-11T09:26:34;97300.84;;;25.39;33.02
55171;BME280;41060;47.510;8.680;2022-08-11T09:29:26;97308.75;;;25.47;33.20
55171;BME280;41060;47.510;8.680;2022-08-11T09:31:53;97303.94;;;25.62;33.22
55171;BME280;41060;47.510;8.680;2022-08-11T09:34:23;97303.28;;;25.74;33.11
55171;BME280;41060;47.510;8.680;2022-08-11T09:36:51;97300.09;;;25.96;32.97
55171;BME280;41060;47.510;8.680;2022-08-11T09:39:39;97298.97;;;26.11;32.15
55171;BME280;41060;47.510;8.680;2022-08-11T09:42:25;97298.56;;;26.14;32.26
55171;BME280;41060;47.510;8.680;2022-08-11T09:45:13;97298.31;;;26.28;32.41
55171;BME280;41060;47.510;8.680;2022-08-11T09:47:42;97284.94;;;26.20;32.05
55171;BME280;41060;47.510;8.680;2022-08-11T09:50:10;97285.38;;;26.24;31.50
55171;BME280;41060;47.510;8.680;2022-08-11T09:52:41;97292.25;;;26.26;32.33
55171;BME280;41060;47.510;8.680;2022-08-11T09:55:13;97294.13;;;26.19;32.21
55171;BME280;41060;47.510;8.680;2022-08-11T09:57:45;97290.38;;;26.27;32.32
55171;BME280;41060;47.510;8.680;2022-08-11T10:00:32;97295.19;;;26.25;32.29
55171;BME280;41060;47.510;8.680;2022-08-11T10:03:06;97288.81;;;26.44;31.19
55171;BME280;41060;47.510;8.680;2022-08-11T10:05:36;97281.03;;;26.54;31.73
55171;BME280;41060;47.510;8.680;2022-08-11T10:08:25;97282.19;;;26.65;31.27
55171;BME280;41060;47.510;8.680;2022-08-11T10:10:55;97275.56;;;26.61;31.88
55171;BME280;41060;47.510;8.680;2022-08-11T10:13:31;97270.09;;;26.92;31.59
55171;BME280;41060;47.510;8.680;2022-08-11T10:16:22;97279.78;;;27.31;31.26
55171;BME280;41060;47.510;8.680;2022-08-11T10:18:51;97282.38;;;27.26;31.01
55171;BME280;41060;47.510;8.680;2022-08-11T10:21:26;97274.06;;;27.39;31.42
55171;BME280;41060;47.510;8.680;2022-08-11T10:23:57;97277.97;;;27.50;30.40
55171;BME280;41060;47.510;8.680;2022-08-11T10:26:45;97276.97;;;27.44;29.92
55171;BME280;41060;47.510;8.680;2022-08-11T10:29:27;97277.97;;;27.50;30.96
55171;BME280;41060;47.510;8.680;2022-08-11T10:32:13;97278.19;;;27.67;30.88
55171;BME280;41060;47.510;8.680;2022-08-11T10:35:02;97275.66;;;27.72;30.39
55171;BME280;41060;47.510;8.680;2022-08-11T10:37:35;97275.84;;;27.52;29.86
55171;BME280;41060;47.510;8.680;2022-08-11T10:40:14;97276.16;;;27.62;29.78
55171;BME280;41060;47.510;8.680;2022-08-11T10:42:43;97262.72;;;27.85;30.47
55171;BME280;41060;47.510;8.680;2022-08-11T10:45:29;97250.16;;;27.84;29.67
55171;BME280;41060;47.510;8.680;2022-08-11T10:48:14;97270.94;;;27.97;30.15
55171;BME280;41060;47.510;8.680;2022-08-11T10:50:46;97261.94;;;27.96;30.30
55171;BME280;41060;47.510;8.680;2022-08-11T10:53:32;97267.75;;;27.82;30.13
55171;BME280;41060;47.510;8.680;2022-08-11T10:56:18;97271.41;;;27.94;29.91
55171;BME280;41060;47.510;8.680;2022-08-11T10:59:04;97273.59;;;28.04;30.23
55171;BME280;41060;47.510;8.680;2022-08-11T11:01:36;97265.81;;;28.37;30.00
55171;BME280;41060;47.510;8.680;2022-08-11T11:04:11;97262.28;;;28.36;29.82
55171;BME280;41060;47.510;8.680;2022-08-11T11:06:45;97254.59;;;28.45;29.31
55171;BME280;41060;47.510;8.680;2022-08-11T11:09:17;97254.72;;;28.68;30.91
55171;BME280;41060;47.510;8.680;2022-08-11T11:11:49;97260.03;;;28.75;29.17
55171;BME280;41060;47.510;8.680;2022-08-11T11:14:36;97258.72;;;28.78;30.08
55171;BME280;41060;47.510;8.680;2022-08-11T11:17:28;97251.25;;;28.61;29.44
55171;BME280;41060;47.510;8.680;2022-08-11T11:20:16;97261.13;;;28.86;29.19
55171;BME280;41060;47.510;8.680;2022-08-11T11:22:44;97255.69;;;28.97;29.83
55171;BME280;41060;47.510;8.680;2022-08-11T11:25:23;97262.75;;;29.28;28.66
55171;BME280;41060;47.510;8.680;2022-08-11T11:27:59;97243.41;;;29.41;28.60
55171;BME280;41060;47.510;8.680;2022-08-11T11:30:37;97261.66;;;29.41;28.88
55171;BME280;41060;47.510;8.680;2022-08-11T11:33:13;97259.41;;;29.38;29.07
55171;BME280;41060;47.510;8.680;2022-08-11T11:35:53;97251.31;;;29.55;28.53
55171;BME280;41060;47.510;8.680;2022-08-11T11:38:21;97245.03;;;29.54;28.97
55171;BME280;41060;47.510;8.680;2022-08-11T11:40:49;97248.69;;;29.60;28.41
55171;BME280;41060;47.510;8.680;2022-08-11T11:43:36;97242.91;;;29.68;28.57
55171;BME280;41060;47.510;8.680;2022-08-11T11:46:05;97236.84;;;29.77;27.95
55171;BME280;41060;47.510;8.680;2022-08-11T11:48:34;97236.56;;;29.91;27.54
55171;BME280;41060;47.510;8.680;2022-08-11T11:51:02;97232.47;;;30.05;26.97
55171;BME280;41060;47.510;8.680;2022-08-11T11:53:30;97240.16;;;30.19;27.43
55171;BME280;41060;47.510;8.680;2022-08-11T11:55:58;97233.72;;;30.25;27.57
55171;BME280;41060;47.510;8.680;2022-08-11T11:58:26;97226.59;;;30.53;27.13
55171;BME280;41060;47.510;8.680;2022-08-11T12:01:16;97228.16;;;30.77;26.71
55171;BME280;41060;47.510;8.680;2022-08-11T12:03:46;97219.75;;;31.00;26.43
55171;BME280;41060;47.510;8.680;2022-08-11T12:06:16;97217.03;;;31.00;26.12
55171;BME280;41060;47.510;8.680;2022-08-11T12:08:43;97205.34;;;30.88;25.46
55171;BME280;41060;47.510;8.680;2022-08-11T12:11:14;97214.03;;;30.85;25.39
55171;BME280;41060;47.510;8.680;2022-08-11T12:14:02;97214.38;;;30.72;25.25
55171;BME280;41060;47.510;8.680;2022-08-11T12:16:33;97211.81;;;30.82;25.45
55171;BME280;41060;47.510;8.680;2022-08-11T12:19:02;97199.88;;;30.72;25.51
55171;BME280;41060;47.510;8.680;2022-08-11T12:21:33;97212.91;;;30.81;25.95
55171;BME280;41060;47.510;8.680;2022-08-11T12:24:01;97208.09;;;30.88;25.34
55171;BME280;41060;47.510;8.680;2022-08-11T12:26:47;97191.84;;;30.98;25.77
55171;BME280;41060;47.510;8.680;2022-08-11T12:29:34;97187.69;;;31.13;25.86
55171;BME280;41060;47.510;8.680;2022-08-11T12:32:06;97183.38;;;31.17;25.69
55171;BME280;41060;47.510;8.680;2022-08-11T12:34:35;97183.13;;;31.35;24.92
55171;BME280;41060;47.510;8.680;2022-08-11T12:37:03;97180.47;;;31.23;24.45
55171;BME280;41060;47.510;8.680;2022-08-11T12:39:36;97181.69;;;31.16;24.41
55171;BME280;41060;47.510;8.680;2022-08-11T12:42:26;97180.63;;;31.17;24.58
55171;BME280;41060;47.510;8.680;2022-08-11T12:45:14;97180.63;;;31.33;25.06
55171;BME280;41060;47.510;8.680;2022-08-11T12:48:00;97170.28;;;31.57;25.39
55171;BME280;41060;47.510;8.680;2022-08-11T12:50:50;97168.09;;;31.59;25.31
55171;BME280;41060;47.510;8.680;2022-08-11T12:53:41;97163.31;;;31.28;25.35
55171;BME280;41060;47.510;8.680;2022-08-11T12:56:09;97169.19;;;31.20;25.37
55171;BME280;41060;47.510;8.680;2022-08-11T12:58:55;97160.03;;;30.92;25.79
55171;BME280;41060;47.510;8.680;2022-08-11T13:01:41;97162.38;;;30.84;25.68
55171;BME280;41060;47.510;8.680;2022-08-11T13:04:29;97160.91;;;30.76;25.44
55171;BME280;41060;47.510;8.680;2022-08-11T13:07:14;97146.91;;;31.11;24.70
55171;BME280;41060;47.510;8.680;2022-08-11T13:09:43;97148.63;;;31.34;24.88
55171;BME280;41060;47.510;8.680;2022-08-11T13:12:11;97146.38;;;31.31;24.77
55171;BME280;41060;47.510;8.680;2022-08-11T13:14:57;97142.38;;;31.60;24.99
55171;BME280;41060;47.510;8.680;2022-08-11T13:17:26;97153.63;;;31.81;23.51
55171;BME280;41060;47.510;8.680;2022-08-11T13:19:57;97144.59;;;32.07;23.99
55171;BME280;41060;47.510;8.680;2022-08-11T13:22:25;97148.38;;;32.01;24.47
55171;BME280;41060;47.510;8.680;2022-08-11T13:24:53;97147.50;;;31.95;24.02
55171;BME280;41060;47.510;8.680;2022-08-11T13:27:21;97132.44;;;31.98;24.08
55171;BME280;41060;47.510;8.680;2022-08-11T13:29:50;97126.59;;;32.16;23.56
55171;BME280;41060;47.510;8.680;2022-08-11T13:32:39;97124.28;;;32.03;24.18
55171;BME280;41060;47.510;8.680;2022-08-11T13:35:11;97123.16;;;32.26;24.10
55171;BME280;41060;47.510;8.680;2022-08-11T13:37:39;97127.47;;;32.48;23.43
55171;BME280;41060;47.510;8.680;2022-08-11T13:40:09;97121.84;;;32.33;23.62
55171;BME280;41060;47.510;8.680;2022-08-11T13:42:37;97126.16;;;32.24;23.69
55171;BME280;41060;47.510;8.680;2022-08-11T13:45:06;97127.00;;;32.25;22.96
55171;BME280;41060;47.510;8.680;2022-08-11T13:47:34;97121.41;;;32.20;23.65
55171;BME280;41060;47.510;8.680;2022-08-11T13:50:02;97118.81;;;32.30;23.64
55171;BME280;41060;47.510;8.680;2022-08-11T13:52:31;97123.25;;;32.36;22.88
55171;BME280;41060;47.510;8.680;2022-08-11T13:54:59;97115.13;;;32.46;22.49
55171;BME280;41060;47.510;8.680;2022-08-11T13:57:29;97102.53;;;32.50;23.13
55171;BME280;41060;47.510;8.680;2022-08-11T13:59:58;97103.09;;;32.84;22.68
55171;BME280;41060;47.510;8.680;2022-08-11T14:02:38;97110.25;;;32.90;22.58
55171;BME280;41060;47.510;8.680;2022-08-11T14:05:09;97081.81;;;32.64;23.21
55171;BME280;41060;47.510;8.680;2022-08-11T14:07:45;97101.50;;;32.93;22.20
55171;BME280;41060;47.510;8.680;2022-08-11T14:10:15;97087.66;;;32.73;23.04
55171;BME280;41060;47.510;8.680;2022-08-11T14:12:49;97094.03;;;32.46;23.16
55171;BME280;41060;47.510;8.680;2022-08-11T14:15:34;97088.72;;;32.35;22.84
55171;BME280;41060;47.510;8.680;2022-08-11T14:18:04;97093.25;;;32.56;23.85
55171;BME280;41060;47.510;8.680;2022-08-11T14:20:34;97087.06;;;32.71;22.13
55171;BME280;41060;47.510;8.680;2022-08-11T14:23:17;97090.84;;;32.97;22.36
55171;BME280;41060;47.510;8.680;2022-08-11T14:25:46;97083.53;;;33.17;23.38
55171;BME280;41060;47.510;8.680;2022-08-11T14:28:29;97089.56;;;33.14;22.57
55171;BME280;41060;47.510;8.680;2022-08-11T14:30:58;97071.72;;;33.12;22.32
55171;BME280;41060;47.510;8.680;2022-08-11T14:33:25;97083.53;;;33.17;22.45
55171;BME280;41060;47.510;8.680;2022-08-11T14:35:53;97082.69;;;33.17;22.65
55171;BME280;41060;47.510;8.680;2022-08-11T14:38:21;97081.22;;;32.94;22.90